Time;durP1;ratioP1;P1;durP2;ratioP2;P2;SDS_P1;SDS_P2;PMS_P1;PMS_P2;Temp;Humidity;BMP_temperature;BMP_pressure;BME280_temperature;BME280_humidity;BME280_pressure;Samples;Min_cycle;Max_cycle;Signal;HPM_P1;HPM_P2
2023/08/14 00:01:26;;;;;;;9.48;8.88;;;;;;;18.78;77.47;93452.53;5063923;28;20142;-75
2023/08/14 00:03:53;;;;;;;9.38;8.68;;;;;;;18.76;78.70;93453.81;5066700;28;20153;-75
2023/08/14 00:06:20;;;;;;;9.27;8.57;;;;;;;18.76;78.25;93441.59;5067603;28;20053;-76
2023/08/14 00:08:47;;;;;;;10.35;9.65;;;;;;;18.77;78.23;93460.59;5067756;28;20468;-76
2023/08/14 00:11:15;;;;;;;8.63;8.02;;;;;;;18.77;77.83;93458.78;5067588;28;20094;-75
2023/08/14 00:13:59;;;;;;;9.70;9.00;;;;;;;18.74;78.76;93456.66;5065483;28;20049;-75
2023/08/14 00:16:27;;;;;;;9.48;8.68;;;;;;;18.70;78.98;93458.19;5063834;28;20054;-75
2023/08/14 00:18:54;;;;;;;9.43;8.73;;;;;;;18.47;79.72;93438.63;5061777;28;20045;-75
2023/08/14 00:21:21;;;;;;;10.90;10.10;;;;;;;18.59;79.91;93469.59;5066118;28;20135;-75
2023/08/14 00:23:48;;;;;;;9.93;9.13;;;;;;;18.51;80.56;93468.28;5066510;28;20456;-75
2023/08/14 00:26:17;;;;;;;10.00;9.25;;;;;;;18.48;80.53;93464.38;5066618;28;20346;-75
2023/08/14 00:28:44;;;;;;;13.90;12.93;;;;;;;18.43;80.97;93467.72;5067014;28;20487;-75
2023/08/14 00:31:10;;;;;;;12.57;11.57;;;;;;;18.38;81.14;93459.13;5066736;28;20056;-75
2023/08/14 00:33:37;;;;;;;15.18;14.18;;;;;;;18.32;82.03;93467.94;5062671;28;20066;-75
2023/08/14 00:36:05;;;;;;;16.77;15.75;;;;;;;18.18;83.69;93462.38;5066650;28;20094;-75
2023/08/14 00:38:32;;;;;;;15.60;14.55;;;;;;;18.12;84.21;93466.75;5066308;28;20055;-75
2023/08/14 00:40:59;;;;;;;13.68;12.73;;;;;;;18.01;84.87;93451.06;5067703;28;20560;-75
2023/08/14 00:43:27;;;;;;;14.70;13.60;;;;;;;17.92;85.28;93451.78;5065609;28;20036;-75
2023/08/14 00:45:56;;;;;;;19.10;17.67;;;;;;;17.88;85.69;93456.69;5060677;28;20106;-75
2023/08/14 00:48:24;;;;;;;22.95;21.58;;;;;;;17.83;86.58;93460.03;5061125;28;20070;-75
2023/08/14 00:50:51;;;;;;;14.73;13.82;;;;;;;17.73;86.40;93450.34;5067516;28;20080;-75
2023/08/14 00:53:18;;;;;;;21.80;20.60;;;;;;;17.76;86.62;93451.66;5065156;28;20114;-75
2023/08/14 00:55:46;;;;;;;26.00;24.55;;;;;;;17.74;87.93;93458.94;5065825;28;20197;-75
2023/08/14 00:58:13;;;;;;;19.05;17.92;;;;;;;17.62;86.87;93459.09;5062516;28;20103;-75
2023/08/14 01:00:42;;;;;;;14.50;13.40;;;;;;;17.67;87.15;93456.53;5067041;28;20619;-75
2023/08/14 01:03:09;;;;;;;24.95;23.60;;;;;;;17.65;87.20;93456.00;5059346;28;20123;-75
2023/08/14 01:05:36;;;;;;;23.50;22.30;;;;;;;17.60;87.67;93466.34;5066240;28;20403;-75
2023/08/14 01:08:03;;;;;;;29.17;27.63;;;;;;;17.54;88.53;93447.31;5061987;28;20582;-75
2023/08/14 01:10:39;;;;;;;19.70;18.42;;;;;;;17.55;87.34;93453.31;5064404;28;20536;-75
2023/08/14 01:13:30;;;;;;;30.98;29.38;;;;;;;17.52;87.25;93457.19;5066015;28;20125;-75
2023/08/14 01:16:02;;;;;;;26.58;25.25;;;;;;;17.36;88.04;93448.50;5063906;28;20098;-75
2023/08/14 01:18:31;;;;;;;28.65;27.15;;;;;;;17.31;89.30;93445.84;5060579;28;20048;-75
2023/08/14 01:21:12;;;;;;;37.63;35.70;;;;;;;17.29;89.30;93453.06;5066133;28;20130;-75
2023/08/14 01:23:50;;;;;;;36.75;34.88;;;;;;;17.30;91.05;93467.63;5060713;28;20045;-75
2023/08/14 01:26:18;;;;;;;35.90;34.08;;;;;;;17.29;90.54;93451.28;5065721;28;20044;-75
2023/08/14 01:28:46;;;;;;;44.63;42.35;;;;;;;17.23;90.51;93457.44;5065122;28;20090;-75
2023/08/14 01:31:12;;;;;;;38.78;36.83;;;;;;;17.22;90.85;93451.47;5064324;28;20102;-75
2023/08/14 01:33:39;;;;;;;33.78;32.05;;;;;;;17.14;91.57;93461.50;5061020;28;20485;-75
2023/08/14 01:36:15;;;;;;;43.53;41.33;;;;;;;17.04;92.69;93447.38;5065973;28;20045;-75
2023/08/14 01:38:47;;;;;;;;;;;;;;;17.04;92.61;93449.97;5063175;28;20072;-75
2023/08/14 01:41:22;;;;;;;51.03;48.55;;;;;;;16.79;93.50;93440.06;5063921;28;19925;-75
2023/08/14 01:43:53;;;;;;;58.70;55.90;;;;;;;16.77;93.73;93424.78;5066003;28;20044;-75
2023/08/14 01:46:21;;;;;;;40.95;38.88;;;;;;;16.92;94.19;93462.28;5062282;28;20041;-75
2023/08/14 01:48:50;;;;;;;58.50;55.70;;;;;;;16.85;95.15;93448.72;5065995;28;20098;-75
2023/08/14 01:51:18;;;;;;;44.83;42.63;;;;;;;16.81;94.99;93456.19;5064344;28;20460;-75
2023/08/14 01:53:47;;;;;;;40.38;38.38;;;;;;;16.69;95.61;93433.75;5063148;28;20045;-75
2023/08/14 01:56:14;;;;;;;39.10;37.17;;;;;;;16.73;96.08;93461.81;5062421;28;20041;-75
2023/08/14 01:58:42;;;;;;;44.03;41.83;;;;;;;16.65;95.28;93447.44;5065854;28;20053;-75
2023/08/14 02:01:08;;;;;;;46.90;44.35;;;;;;;16.72;95.72;93457.66;5064122;28;20098;-75
2023/08/14 02:03:35;;;;;;;50.53;48.13;;;;;;;16.67;95.40;93455.78;5060125;28;20052;-75
2023/08/14 02:06:02;;;;;;;46.88;44.63;;;;;;;16.58;96.59;93454.63;5065466;28;20551;-75
2023/08/14 02:08:28;;;;;;;50.75;48.33;;;;;;;16.58;97.22;93442.47;5066171;28;20076;-75
2023/08/14 02:10:55;;;;;;;40.85;38.75;;;;;;;16.46;97.57;93457.31;5063416;28;20053;-74
2023/08/14 02:13:22;;;;;;;46.47;44.08;;;;;;;16.48;97.37;93450.09;5062690;28;20103;-75
2023/08/14 02:15:50;;;;;;;46.00;43.75;;;;;;;16.42;98.44;93442.25;5061366;28;20041;-75
2023/08/14 02:18:17;;;;;;;53.70;51.05;;;;;;;16.39;99.68;93447.16;5064223;28;20102;-75
2023/08/14 02:20:47;;;;;;;61.42;58.55;;;;;;;16.23;98.81;93420.22;5062054;28;20091;-74
2023/08/14 02:23:13;;;;;;;67.53;64.43;;;;;;;16.28;100.00;93452.19;5051802;28;20044;-75
2023/08/14 02:25:41;;;;;;;74.38;70.95;;;;;;;16.24;99.94;93448.50;5058756;28;20491;-75
2023/08/14 02:28:08;;;;;;;61.38;58.47;;;;;;;15.93;100.00;93414.41;5063309;28;20048;-76
2023/08/14 02:30:37;;;;;;;52.03;49.55;;;;;;;16.17;100.00;93460.84;5067053;28;20064;-75
2023/08/14 02:33:06;;;;;;;57.60;54.83;;;;;;;16.17;100.00;93458.25;5065803;28;20976;-76
2023/08/14 02:35:32;;;;;;;63.88;60.92;;;;;;;16.09;100.00;93443.09;5064900;28;20157;-75
2023/08/14 02:37:59;;;;;;;64.88;61.85;;;;;;;16.14;100.00;93474.28;5069976;28;20056;-75
2023/08/14 02:40:26;;;;;;;54.22;51.50;;;;;;;16.16;100.00;93473.00;5066056;28;20052;-75
2023/08/14 02:42:52;;;;;;;51.10;48.67;;;;;;;16.15;100.00;93463.66;5068283;28;20094;-75
2023/08/14 02:45:19;;;;;;;69.78;66.60;;;;;;;16.10;100.00;93462.81;5068871;28;20562;-74
2023/08/14 02:47:46;;;;;;;58.88;56.08;;;;;;;16.04;100.00;93469.72;5066295;28;20050;-73
2023/08/14 02:50:15;;;;;;;70.75;67.43;;;;;;;15.98;100.00;93457.72;5068032;28;20040;-74
2023/08/14 02:52:41;;;;;;;56.40;53.63;;;;;;;15.99;100.00;93470.44;5069494;28;20760;-74
2023/08/14 02:55:08;;;;;;;72.90;69.47;;;;;;;15.95;100.00;93466.75;5066542;28;20045;-74
2023/08/14 02:57:35;;;;;;;73.43;69.97;;;;;;;15.96;100.00;93472.72;5066687;28;20097;-75
2023/08/14 03:00:03;;;;;;;66.13;63.00;;;;;;;15.91;100.00;93468.22;5065640;28;20044;-74
2023/08/14 03:02:30;;;;;;;62.45;59.40;;;;;;;15.90;100.00;93467.44;5065210;28;20083;-74
2023/08/14 03:04:56;;;;;;;54.47;51.65;;;;;;;15.72;100.00;93460.69;5067622;28;20094;-74
2023/08/14 03:07:25;;;;;;;73.82;70.35;;;;;;;15.79;100.00;93470.09;5066529;28;20049;-74
2023/08/14 03:09:51;;;;;;;73.05;69.70;;;;;;;15.79;100.00;93468.31;5065808;28;20456;-74
2023/08/14 03:12:18;;;;;;;68.57;65.38;;;;;;;15.67;100.00;93447.66;5064130;28;20058;-75
2023/08/14 03:14:45;;;;;;;66.40;63.17;;;;;;;15.56;100.00;93471.81;5067783;28;20045;-75
2023/08/14 03:17:12;;;;;;;66.70;63.47;;;;;;;15.59;100.00;93469.53;5065565;28;20053;-75
2023/08/14 03:19:38;;;;;;;95.85;91.53;;;;;;;15.50;100.00;93445.84;5068697;28;20094;-75
2023/08/14 03:22:05;;;;;;;77.95;74.32;;;;;;;15.54;100.00;93469.47;5063924;28;20056;-75
2023/08/14 03:24:33;;;;;;;89.60;85.43;;;;;;;15.49;100.00;93466.78;5062289;28;20540;-75
2023/08/14 03:27:00;;;;;;;68.90;65.68;;;;;;;15.41;100.00;93467.19;5065346;28;20048;-74
2023/08/14 03:29:27;;;;;;;86.38;82.32;;;;;;;15.45;100.00;93461.28;5065839;28;20052;-74
2023/08/14 03:31:53;;;;;;;93.18;88.82;;;;;;;15.42;100.00;93472.09;5060294;28;20090;-75
2023/08/14 03:34:20;;;;;;;82.53;78.70;;;;;;;15.40;100.00;93476.72;5067967;28;20052;-75
2023/08/14 03:36:47;;;;;;;83.80;80.03;;;;;;;15.35;100.00;93451.56;5067481;28;20040;-75
2023/08/14 03:39:13;;;;;;;74.20;70.70;;;;;;;15.38;100.00;93462.44;5068560;28;20049;-75
2023/08/14 03:41:41;;;;;;;87.55;83.53;;;;;;;15.29;100.00;93467.22;5067053;28;20098;-75
2023/08/14 03:44:08;;;;;;;109.88;104.95;;;;;;;15.25;100.00;93466.09;5067091;28;20040;-75
2023/08/14 03:46:35;;;;;;;108.25;103.38;;;;;;;15.28;100.00;93474.19;5064892;28;20041;-75
2023/08/14 03:49:02;;;;;;;110.50;105.05;;;;;;;15.32;100.00;93464.94;5057753;28;20543;-75
2023/08/14 03:51:28;;;;;;;96.68;92.35;;;;;;;15.23;100.00;93461.19;5059886;28;20048;-75
2023/08/14 03:53:55;;;;;;;72.82;69.20;;;;;;;15.30;100.00;93461.03;5062937;28;20048;-75
2023/08/14 03:56:22;;;;;;;68.93;65.57;;;;;;;15.35;100.00;93466.28;5065321;28;20041;-75
2023/08/14 03:58:50;;;;;;;69.18;65.70;;;;;;;15.32;100.00;93472.72;5066218;28;20920;-75
2023/08/14 04:01:16;;;;;;;85.97;81.97;;;;;;;15.33;100.00;93468.34;5063163;28;20097;-75
2023/08/14 04:03:43;;;;;;;69.05;65.50;;;;;;;15.30;100.00;93464.41;5064028;28;20049;-74
2023/08/14 04:06:10;;;;;;;87.47;83.38;;;;;;;15.28;100.00;93473.41;5065795;28;20056;-75
2023/08/14 04:08:36;;;;;;;106.85;101.95;;;;;;;15.30;100.00;93472.16;5066906;28;21356;-75
2023/08/14 04:11:04;;;;;;;77.88;74.25;;;;;;;15.23;100.00;93472.31;5065253;28;20101;-75
2023/08/14 04:13:31;;;;;;;106.97;102.10;;;;;;;15.29;100.00;93465.44;5064972;28;20826;-75
2023/08/14 04:16:00;;;;;;;71.22;67.88;;;;;;;15.33;100.00;93473.50;5062775;28;20048;-75
2023/08/14 04:18:27;;;;;;;68.40;65.07;;;;;;;15.30;100.00;93468.78;5064664;28;20131;-74
2023/08/14 04:20:54;;;;;;;75.82;72.13;;;;;;;15.28;100.00;93468.25;5063030;28;20195;-74
2023/08/14 04:23:21;;;;;;;78.40;74.68;;;;;;;15.21;100.00;93456.22;5063574;28;20524;-74
2023/08/14 04:25:48;;;;;;;90.25;85.97;;;;;;;15.34;100.00;93475.06;5062311;28;20041;-74
2023/08/14 04:28:15;;;;;;;82.75;78.95;;;;;;;15.31;100.00;93463.38;5061918;28;20052;-74
2023/08/14 04:30:42;;;;;;;61.30;58.17;;;;;;;15.36;100.00;93467.84;5061295;28;20044;-74
2023/08/14 04:33:10;;;;;;;70.28;66.97;;;;;;;15.42;100.00;93482.44;5062112;28;21551;-74
2023/08/14 04:35:37;;;;;;;66.40;63.08;;;;;;;15.46;100.00;93483.56;5063725;28;20044;-74
2023/08/14 04:38:04;;;;;;;73.30;69.57;;;;;;;15.49;100.00;93480.53;5057832;28;20048;-74
2023/08/14 04:40:31;;;;;;;82.82;78.78;;;;;;;15.56;100.00;93479.59;5061358;28;20044;-75
2023/08/14 04:42:58;;;;;;;58.20;55.15;;;;;;;15.57;100.00;93491.50;5062091;28;20549;-74
2023/08/14 04:45:24;;;;;;;57.72;54.65;;;;;;;15.64;100.00;93481.78;5060728;28;20040;-76
2023/08/14 04:47:51;;;;;;;74.43;70.72;;;;;;;15.69;100.00;93481.88;5065966;28;20048;-75
2023/08/14 04:50:19;;;;;;;65.10;61.92;;;;;;;15.73;100.00;93480.38;5067087;28;20097;-74
2023/08/14 04:52:46;;;;;;;61.35;57.90;;;;;;;15.78;100.00;93492.63;5066948;28;20040;-75
2023/08/14 04:55:13;;;;;;;78.53;74.85;;;;;;;15.83;100.00;93497.09;5063661;28;20064;-75
2023/08/14 04:57:40;;;;;;;75.95;72.43;;;;;;;15.86;100.00;93487.06;5066655;28;20098;-75
2023/08/14 05:00:08;;;;;;;74.97;71.30;;;;;;;15.91;100.00;93488.94;5066721;28;20048;-75
2023/08/14 05:02:34;;;;;;;76.72;72.95;;;;;;;15.79;100.00;93490.81;5063672;28;20045;-76
2023/08/14 05:05:01;;;;;;;65.07;61.85;;;;;;;15.70;100.00;93496.38;5064621;28;20040;-76
2023/08/14 05:07:29;;;;;;;69.60;66.32;;;;;;;15.75;100.00;93488.69;5064235;28;20052;-76
2023/08/14 05:09:56;;;;;;;67.55;64.13;;;;;;;15.81;100.00;93491.34;5063383;28;20044;-76
2023/08/14 05:12:22;;;;;;;62.38;59.30;;;;;;;16.03;100.00;93494.06;5061016;28;20098;-76
2023/08/14 05:14:49;;;;;;;68.95;65.75;;;;;;;16.04;100.00;93493.06;5065399;28;20486;-76
2023/08/14 05:17:16;;;;;;;54.10;51.47;;;;;;;16.17;100.00;93490.13;5063840;28;20037;-75
2023/08/14 05:19:43;;;;;;;59.47;56.55;;;;;;;16.24;100.00;93484.00;5066542;28;20053;-76
2023/08/14 05:22:09;;;;;;;60.65;57.67;;;;;;;16.42;100.00;93496.69;5067164;28;20135;-76
2023/08/14 05:24:37;;;;;;;52.10;49.58;;;;;;;16.52;100.00;93487.50;5063715;28;20052;-75
2023/08/14 05:27:04;;;;;;;56.05;53.35;;;;;;;16.59;100.00;93495.88;5061949;28;20110;-74
2023/08/14 05:29:31;;;;;;;49.15;46.67;;;;;;;16.45;100.00;93494.66;5063184;28;20049;-75
2023/08/14 05:31:59;;;;;;;47.70;44.92;;;;;;;16.53;100.00;93496.84;5062783;28;20052;-75
2023/08/14 05:34:26;;;;;;;40.50;38.47;;;;;;;16.48;100.00;93483.81;5066908;28;20088;-75
2023/08/14 05:36:53;;;;;;;48.55;46.15;;;;;;;16.65;100.00;93488.94;5063447;28;20512;-75
2023/08/14 05:39:20;;;;;;;45.75;43.38;;;;;;;16.76;100.00;93495.81;5064834;28;20053;-75
2023/08/14 05:41:49;;;;;;;49.28;46.78;;;;;;;16.93;100.00;93492.38;5061585;28;20040;-76
2023/08/14 05:44:16;;;;;;;39.13;36.63;;;;;;;16.87;98.72;93468.19;5065138;28;20094;-75
2023/08/14 05:46:43;;;;;;;35.72;33.83;;;;;;;17.18;96.33;93498.94;5066205;28;20045;-75
2023/08/14 05:49:10;;;;;;;34.85;32.97;;;;;;;17.41;96.42;93494.47;5064921;28;20576;-76
2023/08/14 05:51:37;;;;;;;30.15;28.38;;;;;;;17.29;93.51;93461.66;5066580;28;20045;-76
2023/08/14 05:54:04;;;;;;;43.40;41.22;;;;;;;17.63;95.53;93490.00;5063750;28;20457;-76
2023/08/14 05:56:30;;;;;;;34.33;32.00;;;;;;;17.75;93.50;93496.84;5066638;28;20094;-76
2023/08/14 05:58:58;;;;;;;32.58;30.77;;;;;;;17.89;94.25;93497.22;5065823;28;20086;-76
2023/08/14 06:01:26;;;;;;;28.30;26.40;;;;;;;17.99;95.35;93489.53;5064024;28;20491;-76
2023/08/14 06:03:54;;;;;;;32.40;30.48;;;;;;;18.26;94.92;93491.28;5065330;28;20041;-75
2023/08/14 06:06:21;;;;;;;21.30;19.65;;;;;;;18.43;93.41;93488.53;5064877;28;20438;-75
2023/08/14 06:08:48;;;;;;;18.42;16.80;;;;;;;18.64;91.16;93493.03;5065772;28;20052;-76
2023/08/14 06:11:15;;;;;;;18.92;17.00;;;;;;;18.88;90.92;93479.63;5066440;28;20045;-75
2023/08/14 06:13:41;;;;;;;14.07;12.73;;;;;;;19.05;89.81;93477.63;5061352;28;20461;-74
2023/08/14 06:16:09;;;;;;;14.35;13.38;;;;;;;19.25;87.23;93486.53;5062304;28;20048;-74
2023/08/14 06:18:36;;;;;;;13.25;11.63;;;;;;;19.45;86.86;93477.22;5062292;28;20045;-75
2023/08/14 06:21:03;;;;;;;13.48;12.20;;;;;;;19.66;85.27;93475.41;5064242;28;20612;-74
2023/08/14 06:23:30;;;;;;;12.43;11.45;;;;;;;19.87;84.03;93467.59;5064995;28;20048;-75
2023/08/14 06:25:58;;;;;;;10.90;9.38;;;;;;;20.01;83.48;93471.25;5062580;28;20045;-75
2023/08/14 06:28:25;;;;;;;9.77;8.90;;;;;;;20.21;84.16;93467.06;5063806;28;20106;-75
2023/08/14 06:30:52;;;;;;;7.90;7.10;;;;;;;20.48;79.27;93471.19;5065301;28;20543;-76
2023/08/14 06:33:20;;;;;;;5.40;5.00;;;;;;;20.63;72.61;93485.22;5064325;28;20052;-76
2023/08/14 06:35:47;;;;;;;6.55;5.85;;;;;;;20.61;71.03;93476.88;5065171;28;20052;-75
2023/08/14 06:38:13;;;;;;;5.30;4.80;;;;;;;20.73;70.70;93477.38;5065460;28;20089;-75
2023/08/14 06:40:40;;;;;;;5.07;4.57;;;;;;;20.96;70.54;93472.59;5065984;28;20045;-76
2023/08/14 06:43:07;;;;;;;5.28;4.88;;;;;;;20.92;70.49;93476.81;5062993;28;20044;-75
2023/08/14 06:45:33;;;;;;;6.32;5.78;;;;;;;20.89;70.11;93479.97;5064317;28;20525;-76
2023/08/14 06:48:00;;;;;;;4.82;4.38;;;;;;;21.00;69.87;93478.06;5065547;28;20060;-76
2023/08/14 06:50:28;;;;;;;5.55;5.05;;;;;;;20.99;70.49;93440.75;5064743;28;20453;-75
2023/08/14 06:52:55;;;;;;;7.43;4.72;;;;;;;21.43;68.86;93478.38;5062841;28;20102;-76
2023/08/14 06:55:22;;;;;;;4.72;4.32;;;;;;;21.41;68.98;93477.88;5062685;28;20048;-75
2023/08/14 06:57:49;;;;;;;6.10;5.57;;;;;;;21.44;67.25;93485.16;5064588;28;20045;-75
2023/08/14 07:00:16;;;;;;;5.28;4.80;;;;;;;21.54;66.27;93473.88;5065461;28;20110;-76
2023/08/14 07:02:46;;;;;;;5.35;3.85;;;;;;;21.70;66.39;93484.22;5065443;28;20056;-76
2023/08/14 07:05:13;;;;;;;14.80;9.27;;;;;;;21.66;66.32;93488.44;5063604;28;20049;-75
2023/08/14 07:07:41;;;;;;;5.18;4.30;;;;;;;21.81;66.68;93483.13;5063181;28;20040;-74
2023/08/14 07:10:09;;;;;;;4.30;3.92;;;;;;;22.03;66.62;93481.88;5065221;28;20122;-75
2023/08/14 07:12:35;;;;;;;3.85;3.33;;;;;;;22.36;64.87;93483.97;5063397;28;20052;-75
2023/08/14 07:15:02;;;;;;;4.47;3.53;;;;;;;22.35;62.95;93474.56;5065428;28;20391;-75
2023/08/14 07:17:29;;;;;;;4.18;3.03;;;;;;;22.48;62.88;93481.75;5066899;28;20048;-75
2023/08/14 07:19:55;;;;;;;4.82;4.13;;;;;;;22.63;61.87;93485.31;5065197;28;20098;-76
2023/08/14 07:22:23;;;;;;;5.57;4.55;;;;;;;22.59;60.94;93471.19;5068413;28;20082;-76
2023/08/14 07:24:51;;;;;;;3.83;3.10;;;;;;;22.66;61.78;93484.72;5064937;28;20492;-75
2023/08/14 07:27:17;;;;;;;3.30;2.83;;;;;;;22.89;61.73;93482.38;5066271;28;20048;-75
2023/08/14 07:29:44;;;;;;;4.68;2.80;;;;;;;23.05;61.68;93477.75;5069199;28;20098;-76
2023/08/14 07:32:11;;;;;;;4.00;3.22;;;;;;;22.88;60.31;93481.63;5066303;28;20049;-75
2023/08/14 07:34:38;;;;;;;4.82;3.30;;;;;;;22.94;58.38;93477.88;5068906;28;20113;-75
2023/08/14 07:37:05;;;;;;;3.35;3.05;;;;;;;22.73;58.71;93474.69;5066643;28;20048;-75
2023/08/14 07:39:32;;;;;;;6.20;3.42;;;;;;;22.92;59.26;93472.13;5066069;28;20111;-75
2023/08/14 07:42:00;;;;;;;6.32;3.75;;;;;;;22.94;57.46;93471.84;5067982;28;20047;-76
2023/08/14 07:44:26;;;;;;;3.90;3.30;;;;;;;23.19;57.78;93470.72;5064528;28;20087;-75
2023/08/14 07:46:53;;;;;;;4.53;2.72;;;;;;;23.23;56.50;93471.75;5065305;28;20556;-75
2023/08/14 07:49:20;;;;;;;3.67;2.80;;;;;;;23.44;56.76;93465.47;5068145;28;20135;-77
2023/08/14 07:51:47;;;;;;;4.35;3.10;;;;;;;23.27;55.60;93479.81;5069360;28;20426;-75
2023/08/14 07:54:13;;;;;;;4.88;3.10;;;;;;;23.37;56.70;93470.28;5067888;28;20052;-75
2023/08/14 07:56:40;;;;;;;4.13;2.92;;;;;;;23.41;56.08;93479.91;5065836;28;20048;-75
2023/08/14 07:59:08;;;;;;;3.50;2.50;;;;;;;23.32;54.58;93487.63;5068829;28;20049;-75
2023/08/14 08:01:35;;;;;;;4.85;3.67;;;;;;;23.62;56.14;93475.16;5064958;28;20101;-75
2023/08/14 08:04:01;;;;;;;3.65;3.22;;;;;;;23.45;56.32;93485.38;5065838;28;20040;-75
2023/08/14 08:06:28;;;;;;;3.13;2.47;;;;;;;23.66;56.48;93485.06;5066842;28;20045;-75
2023/08/14 08:08:55;;;;;;;4.07;2.90;;;;;;;23.99;54.92;93477.22;5066379;28;20090;-75
2023/08/14 08:11:22;;;;;;;3.58;2.70;;;;;;;23.87;53.83;93481.09;5066946;28;20395;-75
2023/08/14 08:13:48;;;;;;;4.25;2.75;;;;;;;23.86;54.66;93476.13;5066374;28;20102;-76
2023/08/14 08:16:17;;;;;;;6.82;3.63;;;;;;;23.74;53.70;93508.03;5063051;28;20102;-75
2023/08/14 08:18:44;;;;;;;3.47;2.50;;;;;;;23.74;53.67;93481.78;5066784;28;20045;-76
2023/08/14 08:21:10;;;;;;;3.47;2.70;;;;;;;23.76;52.88;93490.19;5065800;28;20052;-75
2023/08/14 08:23:37;;;;;;;3.53;2.70;;;;;;;23.82;54.41;93481.16;5064590;28;20049;-75
2023/08/14 08:26:04;;;;;;;4.65;3.25;;;;;;;23.82;54.58;93477.75;5062122;28;20048;-74
2023/08/14 08:28:30;;;;;;;3.92;2.70;;;;;;;23.71;53.82;93482.38;5065210;28;20041;-75
2023/08/14 08:30:57;;;;;;;3.60;3.20;;;;;;;23.83;55.58;93468.84;5063675;28;20101;-76
2023/08/14 08:33:25;;;;;;;5.18;3.58;;;;;;;23.98;54.12;93473.81;5063781;28;20565;-75
2023/08/14 08:35:52;;;;;;;3.35;2.67;;;;;;;23.85;53.96;93479.81;5065533;28;20037;-75
2023/08/14 08:38:19;;;;;;;3.35;2.40;;;;;;;23.79;54.43;93473.84;5066444;28;20052;-75
2023/08/14 08:40:49;;;;;;;3.22;2.85;;;;;;;23.83;54.38;93485.34;5068065;28;20129;-75
2023/08/14 08:43:16;;;;;;;7.18;2.92;;;;;;;23.77;54.10;93465.50;5067962;28;20053;-75
2023/08/14 08:45:49;;;;;;;4.03;3.03;;;;;;;23.70;54.96;93471.09;5066360;28;20132;-75
2023/08/14 08:48:18;;;;;;;4.20;3.30;;;;;;;23.54;53.65;93475.00;5064031;28;20052;-74
2023/08/14 08:50:47;;;;;;;3.30;2.60;;;;;;;23.85;54.56;93479.81;5066035;28;20090;-75
2023/08/14 08:53:15;;;;;;;3.80;2.92;;;;;;;24.15;54.68;93469.91;5063942;28;20080;-75
2023/08/14 08:55:41;;;;;;;4.47;2.58;;;;;;;24.33;52.62;93491.91;5063351;28;20130;-75
2023/08/14 08:58:09;;;;;;;3.42;2.85;;;;;;;23.90;52.71;93464.00;5064016;28;20548;-75
2023/08/14 09:00:36;;;;;;;6.05;5.20;;;;;;;23.88;52.53;93472.13;5063099;28;20044;-76
2023/08/14 09:03:03;;;;;;;4.88;2.50;;;;;;;24.14;51.40;93426.34;5065252;28;20049;-75
2023/08/14 09:05:31;;;;;;;3.35;2.70;;;;;;;24.41;50.97;93438.75;5061571;28;20045;-75
2023/08/14 09:07:59;;;;;;;3.83;2.28;;;;;;;24.47;50.67;93467.50;5062852;28;20054;-75
2023/08/14 09:10:25;;;;;;;3.42;2.90;;;;;;;24.83;51.28;93456.38;5063979;28;20080;-75
2023/08/14 09:12:52;;;;;;;3.22;2.60;;;;;;;24.88;51.84;93450.22;5063306;28;20084;-75
2023/08/14 09:15:19;;;;;;;3.88;2.53;;;;;;;24.92;51.83;93449.38;5061478;28;20153;-75
2023/08/14 09:17:46;;;;;;;6.80;2.90;;;;;;;25.17;51.86;93434.13;5061284;28;20084;-74
2023/08/14 09:20:15;;;;;;;3.97;2.88;;;;;;;24.80;50.19;93441.94;5062041;28;20094;-74
2023/08/14 09:22:41;;;;;;;4.18;3.00;;;;;;;24.89;51.70;93443.88;5061963;28;20049;-74
2023/08/14 09:25:10;;;;;;;12.52;3.78;;;;;;;24.67;51.14;93435.63;5061846;28;20048;-76
2023/08/14 09:27:36;;;;;;;3.20;2.65;;;;;;;25.05;50.65;93447.75;5061523;28;20130;-75
2023/08/14 09:30:06;;;;;;;3.72;2.72;;;;;;;24.91;49.97;93449.66;5061712;28;20463;-74
2023/08/14 09:32:36;;;;;;;7.93;3.17;;;;;;;24.88;50.76;93434.47;5060187;28;20048;-75
2023/08/14 09:35:04;;;;;;;4.53;3.03;;;;;;;24.93;50.93;93443.03;5060224;28;20488;-75
2023/08/14 09:37:30;;;;;;;3.75;3.45;;;;;;;25.07;50.98;93434.34;5061484;28;20406;-75
2023/08/14 09:40:15;;;;;;;3.95;2.63;;;;;;;24.99;51.98;93443.69;5059422;28;20662;-75
2023/08/14 09:42:43;;;;;;;5.35;2.97;;;;;;;25.11;50.68;93426.63;5062727;28;20048;-75
2023/08/14 09:45:12;;;;;;;3.63;3.03;;;;;;;25.22;49.25;93433.22;5062787;28;20080;-76
2023/08/14 09:47:38;;;;;;;3.53;2.97;;;;;;;25.08;49.10;93433.25;5060170;28;20040;-76
2023/08/14 09:50:07;;;;;;;6.18;3.40;;;;;;;25.38;49.04;93428.41;5061118;28;20527;-75
2023/08/14 09:52:34;;;;;;;3.50;2.58;;;;;;;25.21;48.45;93414.06;5062227;28;20095;-75
2023/08/14 09:55:01;;;;;;;4.50;2.70;;;;;;;25.66;47.10;93423.06;5062129;28;20088;-75
2023/08/14 09:57:30;;;;;;;6.18;2.72;;;;;;;25.71;47.25;93424.78;5061097;28;20084;-74
2023/08/14 09:59:56;;;;;;;3.33;2.67;;;;;;;25.45;46.73;93414.84;5062057;28;20502;-75
2023/08/14 10:02:24;;;;;;;4.75;3.10;;;;;;;25.32;47.79;93427.75;5063974;28;20076;-74
2023/08/14 10:04:52;;;;;;;3.10;2.50;;;;;;;25.32;47.76;93419.84;5061242;28;21027;-74
2023/08/14 10:07:20;;;;;;;4.20;2.65;;;;;;;25.96;48.29;93420.00;5060534;28;20080;-75
2023/08/14 10:09:51;;;;;;;3.65;2.40;;;;;;;26.28;46.38;93432.09;5061227;28;20479;-74
2023/08/14 10:12:20;;;;;;;4.65;2.55;;;;;;;26.34;45.19;93435.38;5060466;28;20093;-74
2023/08/14 10:14:57;;;;;;;3.33;2.42;;;;;;;26.54;45.08;93431.44;5061068;28;20101;-75
2023/08/14 10:17:31;;;;;;;3.13;2.40;;;;;;;26.69;45.86;93424.19;5060736;28;21131;-74
2023/08/14 10:20:01;;;;;;;3.80;2.70;;;;;;;26.72;46.28;93401.72;5060435;28;20138;-75
2023/08/14 10:22:28;;;;;;;4.78;2.63;;;;;;;27.25;45.70;93428.94;5059941;28;20070;-74
2023/08/14 10:24:55;;;;;;;3.83;2.72;;;;;;;27.03;44.34;93422.72;5060569;28;20048;-74
2023/08/14 10:27:22;;;;;;;4.85;2.22;;;;;;;26.23;45.00;93403.28;5060011;28;20126;-74
2023/08/14 10:29:52;;;;;;;5.07;2.58;;;;;;;26.40;46.19;93423.66;5060527;28;20683;-74
2023/08/14 10:32:19;;;;;;;5.05;2.67;;;;;;;26.40;45.14;93423.66;5060805;28;20502;-75
2023/08/14 10:34:47;;;;;;;2.88;2.47;;;;;;;26.48;46.42;93432.63;5060599;28;20092;-76
2023/08/14 10:37:25;;;;;;;4.72;2.60;;;;;;;26.55;44.88;93440.88;5061448;28;20425;-75
2023/08/14 10:39:52;;;;;;;3.75;2.70;;;;;;;26.15;45.94;93428.44;5059548;28;20556;-76
2023/08/14 10:42:19;;;;;;;2.88;2.28;;;;;;;26.27;46.02;93424.50;5061690;28;20048;-77
2023/08/14 10:44:46;;;;;;;4.55;2.97;;;;;;;26.17;45.20;93411.56;5062870;28;20133;-76
2023/08/14 10:47:14;;;;;;;4.40;2.90;;;;;;;26.28;45.94;93428.69;5062220;28;20057;-77
2023/08/14 10:49:44;;;;;;;3.72;2.75;;;;;;;26.24;46.60;93428.53;5060674;28;20517;-76
2023/08/14 10:52:14;;;;;;;4.63;3.00;;;;;;;26.04;46.87;93406.09;5065973;28;20052;-77
2023/08/14 10:54:41;;;;;;;3.92;2.47;;;;;;;26.17;46.75;93417.63;5066845;28;20048;-76
2023/08/14 10:57:12;;;;;;;5.63;2.65;;;;;;;26.69;46.47;93413.63;5065541;28;20048;-76
2023/08/14 10:59:40;;;;;;;5.53;3.05;;;;;;;26.10;46.21;93431.22;5064224;28;20512;-78
2023/08/14 11:02:16;;;;;;;3.72;3.05;;;;;;;25.88;46.68;93422.28;5063760;28;20163;-77
2023/08/14 11:04:59;;;;;;;4.22;2.85;;;;;;;26.08;47.24;93399.16;5065704;28;20106;-77
2023/08/14 11:07:29;;;;;;;4.50;3.28;;;;;;;26.40;46.27;93422.84;5065172;28;20043;-76
2023/08/14 11:09:55;;;;;;;4.18;2.63;;;;;;;26.57;46.59;93418.72;5064938;28;20045;-77
2023/08/14 11:12:22;;;;;;;3.40;2.75;;;;;;;26.60;46.48;93411.00;5065481;28;20071;-77
2023/08/14 11:14:49;;;;;;;3.95;3.17;;;;;;;25.91;47.73;93420.13;5065283;28;20137;-76
2023/08/14 11:17:17;;;;;;;4.20;2.38;;;;;;;26.15;48.92;93419.78;5063266;28;20111;-76
2023/08/14 11:19:44;;;;;;;3.15;2.25;;;;;;;25.76;48.49;93411.53;5064707;28;20568;-76
2023/08/14 11:22:10;;;;;;;4.38;2.63;;;;;;;26.01;49.14;93409.34;5066938;28;20066;-78
2023/08/14 11:24:37;;;;;;;3.63;2.85;;;;;;;26.20;48.29;93414.38;5064891;28;20036;-76